Time;durP1;ratioP1;P1;durP2;ratioP2;P2;SDS_P1;SDS_P2;PMS_P1;PMS_P2;Temp;Humidity;BMP_temperature;BMP_pressure;BME280_temperature;BME280_humidity;BME280_pressure;Samples;Min_cycle;Max_cycle;Signal;HPM_P1;HPM_P2
2022/05/07 00:00:42;;;;;;;6.90;5.80;;;;;;;;;;5091637;28;20278;-55
2022/05/07 00:03:08;;;;;;;8.07;5.80;;;;;;;;;;5091423;28;20206;-55
2022/05/07 00:05:34;;;;;;;6.60;6.00;;;;;;;;;;5092086;28;20204;-55
2022/05/07 00:08:00;;;;;;;7.33;5.80;;;;;;;;;;5091664;28;20609;-55
2022/05/07 00:10:26;;;;;;;6.10;5.50;;;;;;;;;;5091973;28;20317;-55
2022/05/07 00:12:53;;;;;;;5.83;5.30;;;;;;;;;;5091919;28;20195;-54
2022/05/07 00:15:19;;;;;;;7.57;6.13;;;;;;;;;;5091926;28;20294;-55
2022/05/07 00:18:01;;;;;;;6.43;5.83;;;;;;;;;;5091500;28;20277;-55
2022/05/07 00:20:27;;;;;;;6.70;5.80;;;;;;;;;;5092044;28;20209;-55
2022/05/07 00:22:53;;;;;;;8.83;5.80;;;;;;;;;;5091913;28;20236;-55
2022/05/07 00:25:20;;;;;;;6.43;5.33;;;;;;;;;;5091675;28;20215;-55
2022/05/07 00:27:46;;;;;;;6.27;5.67;;;;;;;;;;5091919;28;20195;-55
2022/05/07 00:30:12;;;;;;;6.40;5.80;;;;;;;;;;5091928;28;20230;-55
2022/05/07 00:32:38;;;;;;;10.30;6.23;;;;;;;;;;5091878;28;20827;-54
2022/05/07 00:35:06;;;;;;;6.60;6.00;;;;;;;;;;5094153;28;20289;-55
2022/05/07 00:37:32;;;;;;;8.47;6.37;;;;;;;;;;5095878;28;20230;-55
2022/05/07 00:39:58;;;;;;;7.10;6.20;;;;;;;;;;5095839;28;20198;-55
2022/05/07 00:42:24;;;;;;;23.03;20.87;;;;;;;;;;5095738;28;20201;-54
2022/05/07 00:44:50;;;;;;;7.03;6.07;;;;;;;;;;5095222;28;20723;-55
2022/05/07 00:47:21;;;;;;;6.50;5.80;;;;;;;;;;5095638;28;20213;-55
2022/05/07 00:49:48;;;;;;;6.50;5.90;;;;;;;;;;5095566;28;20234;-55
2022/05/07 00:52:18;;;;;;;6.53;5.83;;;;;;;;;;5095567;28;20195;-55
2022/05/07 00:54:44;;;;;;;6.77;6.13;;;;;;;;;;5095656;28;20205;-55
2022/05/07 00:57:11;;;;;;;6.60;5.63;;;;;;;;;;5095269;28;20209;-55
2022/05/07 00:59:36;;;;;;;8.23;5.93;;;;;;;;;;5095408;28;20198;-55
2022/05/07 01:02:03;;;;;;;6.63;6.03;;;;;;;;;;5095299;28;20202;-55
2022/05/07 01:04:29;;;;;;;6.20;5.60;;;;;;;;;;5095483;28;20200;-55
2022/05/07 01:06:55;;;;;;;6.80;6.13;;;;;;;;;;5095238;28;20216;-55
2022/05/07 01:09:22;;;;;;;7.50;6.70;;;;;;;;;;5095221;28;20223;-55
2022/05/07 01:11:48;;;;;;;6.53;5.93;;;;;;;;;;5095042;28;20199;-54
2022/05/07 01:14:14;;;;;;;7.03;6.33;;;;;;;;;;5095406;28;20207;-54
2022/05/07 01:16:40;;;;;;;7.03;6.13;;;;;;;;;;5095063;28;20287;-53
2022/05/07 01:19:06;;;;;;;6.83;6.13;;;;;;;;;;5095041;28;20285;-53
2022/05/07 01:21:34;;;;;;;7.03;6.40;;;;;;;;;;5095131;28;20195;-53
2022/05/07 01:24:00;;;;;;;6.73;6.03;;;;;;;;;;5094953;28;20229;-54
2022/05/07 01:26:26;;;;;;;12.83;7.17;;;;;;;;;;5095069;28;20209;-53
2022/05/07 01:28:58;;;;;;;10.47;7.80;;;;;;;;;;5094725;28;20237;-54
2022/05/07 01:31:25;;;;;;;8.27;7.03;;;;;;;;;;5094339;28;20195;-54
2022/05/07 01:33:52;;;;;;;7.73;6.93;;;;;;;;;;5094724;28;20249;-54
2022/05/07 01:36:19;;;;;;;7.30;6.40;;;;;;;;;;5094842;28;20221;-53
2022/05/07 01:38:46;;;;;;;7.33;6.60;;;;;;;;;;5094882;28;20213;-53
2022/05/07 01:41:12;;;;;;;7.93;6.57;;;;;;;;;;5094415;28;20277;-53
2022/05/07 01:43:38;;;;;;;7.20;6.50;;;;;;;;;;5094463;28;20711;-54
2022/05/07 01:48:49;;;;;;;8.10;7.30;;;;;;;;;;5094393;28;20708;-54
2022/05/07 01:51:15;;;;;;;8.07;7.20;;;;;;;;;;5094433;28;20191;-53
2022/05/07 01:53:41;;;;;;;8.00;7.30;;;;;;;;;;5094328;28;20275;-53
2022/05/07 01:56:08;;;;;;;8.07;6.77;;;;;;;;;;5093844;28;20191;-55
2022/05/07 01:58:34;;;;;;;8.13;7.33;;;;;;;;;;5094310;28;20199;-53
2022/05/07 02:01:00;;;;;;;7.80;7.00;;;;;;;;;;5094217;28;20202;-55
2022/05/07 02:03:26;;;;;;;8.17;6.40;;;;;;;;;;5094127;28;20202;-53
2022/05/07 02:05:52;;;;;;;7.90;7.20;;;;;;;;;;5094092;28;20293;-54
2022/05/07 02:08:18;;;;;;;7.53;6.73;;;;;;;;;;5094051;28;20222;-54
2022/05/07 02:10:44;;;;;;;7.87;7.17;;;;;;;;;;5093934;28;20258;-53
2022/05/07 02:13:12;;;;;;;9.40;7.67;;;;;;;;;;5093929;28;20254;-53
2022/05/07 02:15:38;;;;;;;7.87;7.07;;;;;;;;;;5093808;28;20253;-55
2022/05/07 02:18:04;;;;;;;8.57;7.13;;;;;;;;;;5091984;28;20187;-54
2022/05/07 02:20:30;;;;;;;10.97;6.70;;;;;;;;;;5091986;28;20740;-54
2022/05/07 02:22:56;;;;;;;8.60;7.67;;;;;;;;;;5092771;28;20289;-54
2022/05/07 02:25:22;;;;;;;8.60;7.63;;;;;;;;;;5093389;28;20221;-53
2022/05/07 02:27:48;;;;;;;9.97;8.00;;;;;;;;;;5093692;28;20203;-54
2022/05/07 02:30:19;;;;;;;8.47;7.67;;;;;;;;;;5093507;28;20231;-55
2022/05/07 02:32:45;;;;;;;8.93;7.60;;;;;;;;;;5093578;28;20620;-54
2022/05/07 02:35:10;;;;;;;8.47;7.70;;;;;;;;;;5093600;28;20661;-54
2022/05/07 02:37:37;;;;;;;8.23;7.33;;;;;;;;;;5093504;28;20206;-55
2022/05/07 02:40:03;;;;;;;9.53;8.03;;;;;;;;;;5093278;28;20195;-55
2022/05/07 02:42:39;;;;;;;11.63;8.93;;;;;;;;;;5093571;28;20294;-54
2022/05/07 02:45:06;;;;;;;8.37;7.37;;;;;;;;;;5093332;28;20199;-53
2022/05/07 02:47:34;;;;;;;8.90;8.00;;;;;;;;;;5093357;28;20206;-53
2022/05/07 02:50:00;;;;;;;12.20;8.50;;;;;;;;;;5093232;28;20223;-54
2022/05/07 02:52:26;;;;;;;8.90;8.10;;;;;;;;;;5093367;28;20198;-53
2022/05/07 02:54:52;;;;;;;12.03;8.90;;;;;;;;;;5093162;28;20203;-53
2022/05/07 02:57:18;;;;;;;11.27;8.20;;;;;;;;;;5092425;28;20297;-54
2022/05/07 02:59:44;;;;;;;9.90;9.00;;;;;;;;;;5093207;28;20187;-54
2022/05/07 03:02:10;;;;;;;9.57;8.60;;;;;;;;;;5092881;28;20198;-54
2022/05/07 03:04:37;;;;;;;9.90;9.00;;;;;;;;;;5093112;28;20230;-55
2022/05/07 03:07:04;;;;;;;8.93;8.03;;;;;;;;;;5092987;28;20211;-54
2022/05/07 03:09:30;;;;;;;9.17;8.27;;;;;;;;;;5093092;28;20632;-55
2022/05/07 03:11:56;;;;;;;9.00;8.13;;;;;;;;;;5092933;28;20199;-54
2022/05/07 03:14:21;;;;;;;12.43;9.67;;;;;;;;;;5092933;28;20293;-54
2022/05/07 03:16:48;;;;;;;10.10;9.10;;;;;;;;;;5092661;28;20237;-54
2022/05/07 03:19:15;;;;;;;11.07;9.33;;;;;;;;;;5092822;28;20194;-55
2022/05/07 03:21:43;;;;;;;10.27;9.13;;;;;;;;;;5092875;28;20198;-54
2022/05/07 03:24:09;;;;;;;9.97;8.97;;;;;;;;;;5092716;28;20249;-54
2022/05/07 03:26:35;;;;;;;11.37;9.20;;;;;;;;;;5092697;28;20195;-54
2022/05/07 03:29:01;;;;;;;11.93;9.37;;;;;;;;;;5092330;28;20724;-55
2022/05/07 03:31:27;;;;;;;9.83;8.83;;;;;;;;;;5092232;28;20203;-54
2022/05/07 03:33:53;;;;;;;9.63;8.73;;;;;;;;;;5092674;28;20653;-54
2022/05/07 03:36:22;;;;;;;9.60;8.70;;;;;;;;;;5092547;28;20553;-53
2022/05/07 03:38:49;;;;;;;10.80;9.53;;;;;;;;;;5092321;28;20728;-54
2022/05/07 03:41:15;;;;;;;10.07;9.07;;;;;;;;;;5092329;28;20202;-54
2022/05/07 03:43:41;;;;;;;13.20;9.67;;;;;;;;;;5092499;28;20221;-54
2022/05/07 03:46:08;;;;;;;12.17;9.13;;;;;;;;;;5092221;28;20244;-55
2022/05/07 03:48:34;;;;;;;9.73;8.80;;;;;;;;;;5092137;28;20183;-54
2022/05/07 03:51:01;;;;;;;10.77;9.37;;;;;;;;;;5092177;28;20236;-54
2022/05/07 03:53:30;;;;;;;11.10;9.40;;;;;;;;;;5092121;28;20728;-55
2022/05/07 03:55:57;;;;;;;10.30;9.40;;;;;;;;;;5092172;28;20204;-55
2022/05/07 03:58:25;;;;;;;10.13;8.57;;;;;;;;;;5092109;28;20654;-54
2022/05/07 04:00:52;;;;;;;10.70;9.70;;;;;;;;;;5092013;28;20199;-54
2022/05/07 04:03:18;;;;;;;10.83;9.73;;;;;;;;;;5091993;28;20199;-53
2022/05/07 04:05:44;;;;;;;11.57;9.87;;;;;;;;;;5091923;28;20286;-54
2022/05/07 04:08:10;;;;;;;13.43;9.53;;;;;;;;;;5091878;28;20238;-54
2022/05/07 04:10:36;;;;;;;9.63;8.77;;;;;;;;;;5091950;28;20271;-54
2022/05/07 04:13:04;;;;;;;10.53;9.60;;;;;;;;;;5091910;28;20195;-54
2022/05/07 04:15:31;;;;;;;11.47;10.37;;;;;;;;;;5091891;28;20242;-54
2022/05/07 04:17:58;;;;;;;11.53;9.70;;;;;;;;;;5091833;28;20213;-54
2022/05/07 04:20:24;;;;;;;10.73;9.63;;;;;;;;;;5092045;28;20199;-53
2022/05/07 04:22:50;;;;;;;11.10;9.80;;;;;;;;;;5091954;28;20198;-55
2022/05/07 04:25:16;;;;;;;10.87;9.77;;;;;;;;;;5091758;28;20210;-54
2022/05/07 04:27:42;;;;;;;11.57;9.53;;;;;;;;;;5092131;28;20203;-55
2022/05/07 04:30:10;;;;;;;10.10;9.10;;;;;;;;;;5091809;28;20272;-54
2022/05/07 04:32:36;;;;;;;10.10;9.10;;;;;;;;;;5091762;28;20294;-55
2022/05/07 04:35:03;;;;;;;10.40;9.30;;;;;;;;;;5091776;28;20245;-55
2022/05/07 04:37:29;;;;;;;10.53;9.20;;;;;;;;;;5091870;28;20608;-54
2022/05/07 04:39:55;;;;;;;10.47;9.37;;;;;;;;;;5091697;28;20230;-55
2022/05/07 04:42:21;;;;;;;10.30;9.33;;;;;;;;;;5088078;28;20199;-55
2022/05/07 04:44:47;;;;;;;10.57;9.57;;;;;;;;;;5091551;28;20746;-54
2022/05/07 04:47:14;;;;;;;10.03;9.13;;;;;;;;;;5090709;28;20210;-54
2022/05/07 04:49:40;;;;;;;14.17;10.07;;;;;;;;;;5091388;28;20278;-55
2022/05/07 04:52:06;;;;;;;10.50;8.80;;;;;;;;;;5091541;28;20195;-54
2022/05/07 04:54:32;;;;;;;10.47;8.77;;;;;;;;;;5091567;28;20568;-54
2022/05/07 04:56:59;;;;;;;11.70;9.50;;;;;;;;;;5089757;28;20621;-54
2022/05/07 04:59:25;;;;;;;9.70;8.77;;;;;;;;;;5087901;28;20627;-54
2022/05/07 05:01:51;;;;;;;11.20;10.03;;;;;;;;;;5090728;28;20203;-54
2022/05/07 05:04:18;;;;;;;10.50;9.50;;;;;;;;;;5090749;28;20549;-54
2022/05/07 05:06:44;;;;;;;12.17;9.50;;;;;;;;;;5091403;28;20199;-54
2022/05/07 05:09:12;;;;;;;10.37;9.37;;;;;;;;;;5090979;28;20257;-54
2022/05/07 05:11:39;;;;;;;9.97;9.07;;;;;;;;;;5091235;28;20222;-54
2022/05/07 05:16:50;;;;;;;10.10;9.10;;;;;;;;;;5091137;28;20234;-53
2022/05/07 05:19:16;;;;;;;12.10;9.33;;;;;;;;;;5091366;28;20195;-54
2022/05/07 05:21:43;;;;;;;10.10;9.10;;;;;;;;;;5094583;28;20199;-53
2022/05/07 05:24:09;;;;;;;11.30;10.07;;;;;;;;;;5094703;28;20229;-53
2022/05/07 05:26:35;;;;;;;10.93;9.27;;;;;;;;;;5094914;28;20199;-55
2022/05/07 05:29:02;;;;;;;10.73;9.63;;;;;;;;;;5094726;28;20194;-56
2022/05/07 05:31:28;;;;;;;13.57;9.70;;;;;;;;;;5094864;28;20195;-54
2022/05/07 05:33:54;;;;;;;11.03;9.93;;;;;;;;;;5094764;28;20614;-55
2022/05/07 05:36:20;;;;;;;12.70;10.80;;;;;;;;;;5094742;28;20199;-55
2022/05/07 05:38:47;;;;;;;12.80;11.20;;;;;;;;;;5094743;28;20569;-54
2022/05/07 05:41:13;;;;;;;11.33;10.10;;;;;;;;;;5094712;28;20195;-54
2022/05/07 05:43:40;;;;;;;10.77;9.67;;;;;;;;;;5094687;28;20564;-54
2022/05/07 05:46:06;;;;;;;12.00;10.77;;;;;;;;;;5094588;28;20209;-54
2022/05/07 05:48:32;;;;;;;10.77;9.50;;;;;;;;;;5094544;28;20298;-54
2022/05/07 05:50:59;;;;;;;13.53;10.33;;;;;;;;;;5092813;28;20318;-54
2022/05/07 05:53:25;;;;;;;11.23;10.17;;;;;;;;;;5092677;28;20285;-54
2022/05/07 05:55:52;;;;;;;11.30;10.30;;;;;;;;;;5094499;28;20270;-56
2022/05/07 05:58:18;;;;;;;11.83;9.97;;;;;;;;;;5094356;28;20203;-55
2022/05/07 06:00:44;;;;;;;11.47;10.20;;;;;;;;;;5094546;28;20207;-55
2022/05/07 06:03:10;;;;;;;13.53;10.23;;;;;;;;;;5094274;28;20203;-55
2022/05/07 06:05:36;;;;;;;12.13;10.93;;;;;;;;;;5094318;28;20256;-55
2022/05/07 06:08:02;;;;;;;13.87;10.07;;;;;;;;;;5094253;28;20676;-55
2022/05/07 06:10:28;;;;;;;15.47;10.37;;;;;;;;;;5094358;28;20226;-54
2022/05/07 06:12:55;;;;;;;12.23;10.87;;;;;;;;;;5094096;28;20645;-53
2022/05/07 06:15:21;;;;;;;12.77;10.27;;;;;;;;;;5094032;28;20675;-53
2022/05/07 06:17:47;;;;;;;11.30;10.07;;;;;;;;;;5093796;28;20306;-53
2022/05/07 06:20:13;;;;;;;11.70;10.53;;;;;;;;;;5093879;28;20209;-53
2022/05/07 06:22:39;;;;;;;11.80;10.70;;;;;;;;;;5093616;28;20661;-53
2022/05/07 06:27:51;;;;;;;11.80;10.20;;;;;;;;;;5093833;28;20194;-53
2022/05/07 06:30:18;;;;;;;18.40;11.97;;;;;;;;;;5093749;28;20329;-54
2022/05/07 06:32:44;;;;;;;12.60;11.20;;;;;;;;;;5092567;28;20203;-52
2022/05/07 06:35:10;;;;;;;13.20;11.87;;;;;;;;;;5093646;28;20223;-54
2022/05/07 06:37:39;;;;;;;12.57;11.37;;;;;;;;;;5093566;28;20653;-52
2022/05/07 06:40:06;;;;;;;12.23;11.03;;;;;;;;;;5093605;28;20195;-60
2022/05/07 06:42:35;;;;;;;12.67;11.37;;;;;;;;;;5093450;28;20199;-55
2022/05/07 06:45:01;;;;;;;15.07;10.90;;;;;;;;;;5093437;28;20199;-54
2022/05/07 06:47:29;;;;;;;11.43;10.23;;;;;;;;;;5093162;28;20199;-54
2022/05/07 06:49:55;;;;;;;12.10;11.00;;;;;;;;;;5092959;28;20389;-54
2022/05/07 06:52:21;;;;;;;12.67;11.37;;;;;;;;;;5093395;28;20199;-53
2022/05/07 06:54:47;;;;;;;15.00;12.20;;;;;;;;;;5093143;28;20612;-52
2022/05/07 06:57:13;;;;;;;12.37;11.27;;;;;;;;;;5092755;28;20194;-52
2022/05/07 06:59:39;;;;;;;12.70;11.40;;;;;;;;;;5093048;28;20256;-52
2022/05/07 07:02:05;;;;;;;14.00;11.90;;;;;;;;;;5090859;28;20195;-52
2022/05/07 07:04:32;;;;;;;13.30;12.10;;;;;;;;;;5090081;28;20194;-53
2022/05/07 07:06:58;;;;;;;17.13;15.33;;;;;;;;;;5092208;28;20207;-53
2022/05/07 07:09:24;;;;;;;16.00;13.17;;;;;;;;;;5092822;28;20250;-53
2022/05/07 07:11:50;;;;;;;15.37;12.57;;;;;;;;;;5092958;28;20233;-53
2022/05/07 07:14:16;;;;;;;14.27;12.57;;;;;;;;;;5092629;28;20198;-54
2022/05/07 07:16:42;;;;;;;14.80;13.40;;;;;;;;;;5092261;28;20226;-52
2022/05/07 07:19:09;;;;;;;14.10;12.70;;;;;;;;;;5092507;28;20240;-52
2022/05/07 07:21:36;;;;;;;13.37;12.03;;;;;;;;;;5092471;28;20206;-53
2022/05/07 07:24:02;;;;;;;13.37;12.13;;;;;;;;;;5092393;28;20223;-54
2022/05/07 07:26:28;;;;;;;14.50;13.10;;;;;;;;;;5092486;28;20248;-53
2022/05/07 07:28:56;;;;;;;16.03;13.40;;;;;;;;;;5092077;28;20202;-53
2022/05/07 07:31:22;;;;;;;15.40;12.83;;;;;;;;;;5092249;28;20196;-52
2022/05/07 07:33:47;;;;;;;14.63;13.13;;;;;;;;;;5092163;28;20206;-53
2022/05/07 07:36:14;;;;;;;14.67;13.27;;;;;;;;;;5091850;28;20199;-55
2022/05/07 07:38:41;;;;;;;15.80;14.20;;;;;;;;;;5091908;28;20791;-54
2022/05/07 07:41:07;;;;;;;15.23;13.13;;;;;;;;;;5091893;28;20217;-53
2022/05/07 07:43:34;;;;;;;14.37;13.00;;;;;;;;;;5091510;28;20195;-53
2022/05/07 07:48:46;;;;;;;14.90;13.33;;;;;;;;;;5092128;28;20240;-53
2022/05/07 07:51:12;;;;;;;15.93;14.30;;;;;;;;;;5091878;28;20228;-53
2022/05/07 07:53:38;;;;;;;14.67;13.27;;;;;;;;;;5091964;28;20204;-54
2022/05/07 07:56:07;;;;;;;15.20;13.60;;;;;;;;;;5091687;28;20200;-54
2022/05/07 07:58:34;;;;;;;14.77;13.27;;;;;;;;;;5091926;28;20211;-54
2022/05/07 08:01:00;;;;;;;14.30;12.90;;;;;;;;;;5091641;28;20718;-53
2022/05/07 08:03:26;;;;;;;24.97;22.40;;;;;;;;;;5091820;28;20200;-54
2022/05/07 08:05:53;;;;;;;14.47;13.00;;;;;;;;;;5091748;28;20196;-55
2022/05/07 08:13:53;;;;;;;13.13;11.83;;;;;;;;;;5091662;28;20578;-54
2022/05/07 08:16:19;;;;;;;16.83;13.00;;;;;;;;;;5089869;28;20720;-55
2022/05/07 08:18:46;;;;;;;16.20;11.77;;;;;;;;;;5091577;28;20285;-54
2022/05/07 08:21:12;;;;;;;13.50;12.10;;;;;;;;;;5091366;28;20274;-55
2022/05/07 08:23:39;;;;;;;13.90;12.50;;;;;;;;;;5091245;28;20198;-55
2022/05/07 08:26:06;;;;;;;13.57;11.37;;;;;;;;;;5091361;28;20280;-54
2022/05/07 08:28:32;;;;;;;12.13;10.93;;;;;;;;;;5091467;28;20274;-55
2022/05/07 08:31:00;;;;;;;13.50;11.47;;;;;;;;;;5091197;28;20606;-54
2022/05/07 08:33:26;;;;;;;14.80;12.03;;;;;;;;;;5091362;28;20207;-54
2022/05/07 08:35:52;;;;;;;11.73;10.60;;;;;;;;;;5091322;28;20293;-55
2022/05/07 08:38:19;;;;;;;10.67;9.67;;;;;;;;;;5091193;28;20277;-54
2022/05/07 08:40:45;;;;;;;12.37;9.20;;;;;;;;;;5091599;28;20195;-54
2022/05/07 08:43:11;;;;;;;10.17;8.43;;;;;;;;;;5091360;28;20222;-55
2022/05/07 08:45:39;;;;;;;8.33;7.30;;;;;;;;;;5091397;28;20207;-54
2022/05/07 08:48:07;;;;;;;9.40;7.13;;;;;;;;;;5091157;28;20202;-54
2022/05/07 08:50:33;;;;;;;10.83;6.03;;;;;;;;;;5091433;28;20222;-57
2022/05/07 08:52:59;;;;;;;10.90;6.83;;;;;;;;;;5091314;28;20687;-54
2022/05/07 08:55:25;;;;;;;10.73;9.63;;;;;;;;;;5092644;28;20259;-53
2022/05/07 08:57:51;;;;;;;11.30;9.40;;;;;;;;;;5095064;28;20200;-54
2022/05/07 09:00:18;;;;;;;12.83;9.43;;;;;;;;;;5093776;28;20235;-55
2022/05/07 09:02:45;;;;;;;10.40;8.83;;;;;;;;;;5095103;28;20206;-54
2022/05/07 09:05:13;;;;;;;10.67;8.33;;;;;;;;;;5095054;28;20547;-55
2022/05/07 09:07:51;;;;;;;11.10;8.50;;;;;;;;;;5095456;28;20670;-55
2022/05/07 09:10:19;;;;;;;10.63;9.53;;;;;;;;;;5095101;28;20227;-54
2022/05/07 09:12:45;;;;;;;14.87;8.60;;;;;;;;;;5095134;28;20217;-55
2022/05/07 09:15:11;;;;;;;9.37;8.47;;;;;;;;;;5094458;28;20217;-55
2022/05/07 09:17:37;;;;;;;10.50;8.17;;;;;;;;;;5094709;28;20209;-55
2022/05/07 09:20:11;;;;;;;12.17;8.87;;;;;;;;;;5094735;28;20242;-55
2022/05/07 09:22:49;;;;;;;10.93;7.80;;;;;;;;;;5094791;28;20193;-55
2022/05/07 09:25:20;;;;;;;11.07;9.97;;;;;;;;;;5094721;28;20242;-55
2022/05/07 09:27:51;;;;;;;10.33;9.23;;;;;;;;;;5094952;28;20226;-55
2022/05/07 09:30:21;;;;;;;11.60;8.40;;;;;;;;;;5094569;28;20231;-55
2022/05/07 09:32:49;;;;;;;13.27;8.80;;;;;;;;;;5094617;28;20197;-55
2022/05/07 09:38:02;;;;;;;7.30;6.30;;;;;;;;;;5094388;28;20193;-54
2022/05/07 09:40:28;;;;;;;6.93;5.50;;;;;;;;;;5094647;28;20297;-54
2022/05/07 09:42:57;;;;;;;10.20;7.13;;;;;;;;;;5094459;28;20194;-54
2022/05/07 09:45:26;;;;;;;10.40;6.60;;;;;;;;;;5094545;28;20669;-55
2022/05/07 09:47:52;;;;;;;7.33;6.07;;;;;;;;;;5094492;28;20260;-56
2022/05/07 09:58:35;;;;;;;6.83;4.90;;;;;;;;;;5093933;28;20568;-55
2022/05/07 10:01:10;;;;;;;9.20;6.13;;;;;;;;;;5094220;28;20190;-55
2022/05/07 10:03:41;;;;;;;6.37;5.70;;;;;;;;;;5094365;28;20266;-55
2022/05/07 10:06:21;;;;;;;5.93;4.57;;;;;;;;;;5093898;28;20670;-56
2022/05/07 10:08:53;;;;;;;9.60;4.63;;;;;;;;;;5094107;28;20200;-55
2022/05/07 10:11:19;;;;;;;6.43;5.00;;;;;;;;;;5093773;28;20785;-55
2022/05/07 10:13:55;;;;;;;7.90;5.10;;;;;;;;;;5093321;28;20197;-55
2022/05/07 10:16:22;;;;;;;6.77;5.37;;;;;;;;;;5093133;28;20654;-55
2022/05/07 10:18:48;;;;;;;9.40;5.80;;;;;;;;;;5093695;28;20214;-55
2022/05/07 10:21:14;;;;;;;8.43;5.77;;;;;;;;;;5093469;28;20269;-55
2022/05/07 10:23:52;;;;;;;6.90;4.63;;;;;;;;;;5093354;28;20201;-55
2022/05/07 10:26:18;;;;;;;7.97;4.60;;;;;;;;;;5093230;28;20224;-55
2022/05/07 10:28:45;;;;;;;6.00;4.43;;;;;;;;;;5093542;28;20248;-55
2022/05/07 10:31:21;;;;;;;5.43;4.00;;;;;;;;;;5092724;28;20706;-56
2022/05/07 10:33:47;;;;;;;7.27;4.20;;;;;;;;;;5093283;28;20200;-55
2022/05/07 10:36:14;;;;;;;6.53;5.00;;;;;;;;;;5093281;28;20188;-55
2022/05/07 10:38:42;;;;;;;5.53;4.27;;;;;;;;;;5093149;28;20660;-55
2022/05/07 10:41:20;;;;;;;9.70;4.43;;;;;;;;;;5093057;28;20205;-55
2022/05/07 10:43:47;;;;;;;6.30;4.00;;;;;;;;;;5093162;28;20211;-56
2022/05/07 10:46:16;;;;;;;6.43;4.33;;;;;;;;;;5092687;28;20263;-55
2022/05/07 10:48:45;;;;;;;8.33;4.13;;;;;;;;;;5092877;28;20562;-55
2022/05/07 10:51:18;;;;;;;4.83;3.37;;;;;;;;;;5092836;28;20225;-55
2022/05/07 10:53:44;;;;;;;6.13;3.53;;;;;;;;;;5092975;28;20214;-55
2022/05/07 10:56:14;;;;;;;7.33;4.00;;;;;;;;;;5092685;28;20199;-55
2022/05/07 10:58:46;;;;;;;6.03;4.00;;;;;;;;;;5092834;28;20234;-56
2022/05/07 11:01:12;;;;;;;8.43;4.13;;;;;;;;;;5092576;28;20644;-56
2022/05/07 11:03:39;;;;;;;7.47;3.40;;;;;;;;;;5092678;28;20615;-56
2022/05/07 11:06:05;;;;;;;6.07;3.80;;;;;;;;;;5092479;28;20217;-55
2022/05/07 11:08:31;;;;;;;5.03;3.60;;;;;;;;;;5092699;28;20203;-55
2022/05/07 11:11:04;;;;;;;5.60;3.53;;;;;;;;;;5092558;28;20599;-55
2022/05/07 11:13:30;;;;;;;11.00;8.00;;;;;;;;;;5092453;28;20238;-55
2022/05/07 11:16:04;;;;;;;6.17;4.30;;;;;;;;;;5091905;28;20719;-56
2022/05/07 11:18:32;;;;;;;6.53;4.10;;;;;;;;;;5092011;28;20734;-56
2022/05/07 11:21:03;;;;;;;7.10;3.93;;;;;;;;;;5092416;28;20948;-55
2022/05/07 11:23:30;;;;;;;6.13;4.07;;;;;;;;;;5092645;28;20297;-55
2022/05/07 11:25:56;;;;;;;4.83;3.97;;;;;;;;;;5092223;28;20218;-55
2022/05/07 11:28:22;;;;;;;7.43;4.30;;;;;;;;;;5091945;28;20797;-57
2022/05/07 11:30:52;;;;;;;5.60;4.07;;;;;;;;;;5091541;28;20322;-54
2022/05/07 11:33:24;;;;;;;6.60;4.20;;;;;;;;;;5091641;28;20229;-55
2022/05/07 11:35:59;;;;;;;8.47;3.97;;;;;;;;;;5092052;28;20209;-54
2022/05/07 11:38:25;;;;;;;7.83;4.33;;;;;;;;;;5091850;28;20202;-54
2022/05/07 11:40:52;;;;;;;7.97;3.87;;;;;;;;;;5091846;28;20201;-54
2022/05/07 11:46:06;;;;;;;6.80;3.30;;;;;;;;;;5091929;28;20195;-54
2022/05/07 11:48:33;;;;;;;8.43;3.57;;;;;;;;;;5092064;28;20211;-54
2022/05/07 11:50:59;;;;;;;5.10;3.70;;;;;;;;;;5091821;28;20698;-54
2022/05/07 11:53:27;;;;;;;13.40;3.93;;;;;;;;;;5091965;28;20211;-52
2022/05/07 11:56:04;;;;;;;7.97;4.43;;;;;;;;;;5092041;28;20661;-52
2022/05/07 11:58:38;;;;;;;7.67;4.97;;;;;;;;;;5092147;28;20282;-52
2022/05/07 12:01:06;;;;;;;13.30;5.77;;;;;;;;;;5092077;28;20190;-51
2022/05/07 12:03:33;;;;;;;8.40;7.13;;;;;;;;;;5092181;28;20561;-51
2022/05/07 12:05:59;;;;;;;8.70;6.90;;;;;;;;;;5091981;28;20210;-52
2022/05/07 12:08:30;;;;;;;12.27;6.93;;;;;;;;;;5092000;28;20203;-52
2022/05/07 12:10:57;;;;;;;13.30;7.90;;;;;;;;;;5091933;28;20309;-51
2022/05/07 12:13:26;;;;;;;8.47;6.80;;;;;;;;;;5089738;28;20202;-51
2022/05/07 12:18:47;;;;;;;10.00;7.10;;;;;;;;;;5091790;28;20243;-52
2022/05/07 12:21:13;;;;;;;9.17;7.40;;;;;;;;;;5091920;28;20669;-52
2022/05/07 12:31:55;;;;;;;10.33;8.00;;;;;;;;;;5095901;28;20756;-52
2022/05/07 12:34:22;;;;;;;10.40;6.13;;;;;;;;;;5095942;28;20203;-52
2022/05/07 12:36:48;;;;;;;8.57;5.83;;;;;;;;;;5095988;28;20202;-52
2022/05/07 12:39:14;;;;;;;7.60;5.13;;;;;;;;;;5095539;28;20204;-53
2022/05/07 12:41:41;;;;;;;6.90;4.97;;;;;;;;;;5095166;28;20218;-53
2022/05/07 12:44:07;;;;;;;6.07;4.73;;;;;;;;;;5095442;28;20247;-53
2022/05/07 12:46:33;;;;;;;5.83;4.70;;;;;;;;;;5095656;28;20195;-53
2022/05/07 12:48:59;;;;;;;6.20;5.33;;;;;;;;;;5095611;28;20290;-53
2022/05/07 12:51:27;;;;;;;9.20;5.70;;;;;;;;;;5095609;28;20232;-53
2022/05/07 12:53:53;;;;;;;7.63;5.23;;;;;;;;;;5095805;28;20255;-53
2022/05/07 12:56:19;;;;;;;7.93;5.30;;;;;;;;;;5095456;28;20208;-53
2022/05/07 12:58:46;;;;;;;6.77;4.63;;;;;;;;;;5095534;28;20201;-53
2022/05/07 13:01:12;;;;;;;6.97;4.80;;;;;;;;;;5095365;28;20191;-54
2022/05/07 13:03:39;;;;;;;5.43;4.80;;;;;;;;;;5095410;28;20227;-54
2022/05/07 13:06:05;;;;;;;6.40;5.30;;;;;;;;;;5095280;28;20196;-54
2022/05/07 13:08:32;;;;;;;6.80;5.43;;;;;;;;;;5095425;28;20277;-54
2022/05/07 13:10:58;;;;;;;5.43;4.80;;;;;;;;;;5095222;28;20713;-54
2022/05/07 13:13:24;;;;;;;6.33;5.40;;;;;;;;;;5095251;28;20673;-55
2022/05/07 13:15:50;;;;;;;7.33;5.20;;;;;;;;;;5095030;28;20237;-55
2022/05/07 13:18:20;;;;;;;7.77;4.33;;;;;;;;;;5095081;28;20266;-55
2022/05/07 13:20:47;;;;;;;6.63;4.57;;;;;;;;;;5094208;28;20216;-55
2022/05/07 13:23:13;;;;;;;5.63;4.23;;;;;;;;;;5095088;28;20201;-55
2022/05/07 13:25:41;;;;;;;7.77;4.93;;;;;;;;;;5094515;28;20316;-54
2022/05/07 13:28:07;;;;;;;4.17;3.77;;;;;;;;;;5094760;28;20293;-54
2022/05/07 13:30:33;;;;;;;5.73;3.73;;;;;;;;;;5094757;28;20283;-54
2022/05/07 13:32:59;;;;;;;3.63;2.87;;;;;;;;;;5094890;28;20214;-54
2022/05/07 13:35:25;;;;;;;4.23;3.37;;;;;;;;;;5094809;28;20195;-56
2022/05/07 13:37:51;;;;;;;3.50;3.03;;;;;;;;;;5094691;28;20252;-55
2022/05/07 13:40:17;;;;;;;4.10;2.80;;;;;;;;;;5094521;28;20187;-55
2022/05/07 13:42:44;;;;;;;6.53;2.40;;;;;;;;;;5094438;28;20206;-55
2022/05/07 13:45:11;;;;;;;3.43;2.63;;;;;;;;;;5094588;28;20572;-55
2022/05/07 13:47:38;;;;;;;4.47;2.90;;;;;;;;;;5094010;28;20304;-54
2022/05/07 13:50:05;;;;;;;3.77;3.00;;;;;;;;;;5094252;28;20631;-54
2022/05/07 13:52:31;;;;;;;3.90;2.93;;;;;;;;;;5094429;28;20577;-54
2022/05/07 13:54:57;;;;;;;3.77;2.87;;;;;;;;;;5094242;28;20194;-54
2022/05/07 13:57:23;;;;;;;6.83;2.87;;;;;;;;;;5094190;28;20207;-56
2022/05/07 13:59:50;;;;;;;4.97;3.33;;;;;;;;;;5094252;28;20195;-56
2022/05/07 14:02:16;;;;;;;5.77;3.40;;;;;;;;;;5094293;28;20693;-55
2022/05/07 14:04:42;;;;;;;8.63;3.90;;;;;;;;;;5094255;28;20286;-55
2022/05/07 14:07:14;;;;;;;4.20;3.80;;;;;;;;;;5093980;28;20290;-56
2022/05/07 14:09:40;;;;;;;6.03;3.83;;;;;;;;;;5093897;28;20727;-54
2022/05/07 14:12:06;;;;;;;6.87;4.00;;;;;;;;;;5094073;28;20224;-55
2022/05/07 14:14:32;;;;;;;7.90;4.40;;;;;;;;;;5094106;28;20202;-53
2022/05/07 14:17:00;;;;;;;4.97;3.47;;;;;;;;;;5093860;28;20299;-53
2022/05/07 14:19:26;;;;;;;5.67;3.50;;;;;;;;;;5093845;28;20202;-54
2022/05/07 14:21:52;;;;;;;7.27;3.93;;;;;;;;;;5093728;28;20657;-53
2022/05/07 14:24:18;;;;;;;6.30;3.83;;;;;;;;;;5093603;28;20308;-53
2022/05/07 14:26:44;;;;;;;6.50;3.77;;;;;;;;;;5093665;28;20244;-54
2022/05/07 14:29:10;;;;;;;10.03;4.90;;;;;;;;;;5091257;28;20572;-52
2022/05/07 14:31:36;;;;;;;14.30;4.93;;;;;;;;;;5091675;28;20318;-51
2022/05/07 14:34:03;;;;;;;16.63;6.57;;;;;;;;;;5092670;28;20198;-52
2022/05/07 14:36:29;;;;;;;10.73;5.23;;;;;;;;;;5093068;28;20604;-51
2022/05/07 14:38:55;;;;;;;11.67;5.63;;;;;;;;;;5093764;28;20206;-51
2022/05/07 14:41:21;;;;;;;9.47;6.70;;;;;;;;;;5093393;28;20197;-52
2022/05/07 14:43:47;;;;;;;8.67;5.73;;;;;;;;;;5093428;28;20247;-53
2022/05/07 14:46:15;;;;;;;7.70;6.10;;;;;;;;;;5093355;28;20590;-52
2022/05/07 14:48:41;;;;;;;9.00;5.40;;;;;;;;;;5093364;28;20204;-53
2022/05/07 14:51:08;;;;;;;8.03;5.77;;;;;;;;;;5093074;28;20220;-52
2022/05/07 14:53:34;;;;;;;7.60;6.10;;;;;;;;;;5092212;28;20556;-52
2022/05/07 14:56:00;;;;;;;8.10;5.20;;;;;;;;;;5093348;28;20206;-53
2022/05/07 14:58:26;;;;;;;6.90;5.80;;;;;;;;;;5093210;28;20602;-53
2022/05/07 15:00:52;;;;;;;7.50;5.70;;;;;;;;;;5093211;28;20214;-53
2022/05/07 15:03:18;;;;;;;6.90;5.37;;;;;;;;;;5092931;28;20242;-53
2022/05/07 15:05:44;;;;;;;6.77;6.07;;;;;;;;;;5093198;28;20197;-54
2022/05/07 15:10:56;;;;;;;7.80;5.20;;;;;;;;;;5092868;28;20218;-53
2022/05/07 15:13:22;;;;;;;8.13;5.37;;;;;;;;;;5092805;28;20203;-53
2022/05/07 15:15:49;;;;;;;5.90;5.27;;;;;;;;;;5092583;28;20227;-54